createdAt,value
2022-12-09T00:01:22.041Z,14.70
2022-12-09T00:03:50.256Z,14.73
2022-12-09T00:06:29.055Z,14.20
2022-12-09T00:08:58.196Z,14.35
2022-12-09T00:11:26.665Z,14.13
2022-12-09T00:13:56.427Z,13.45
2022-12-09T00:16:24.655Z,13.88
2022-12-09T00:18:53.035Z,15.27
2022-12-09T00:21:28.692Z,16.02
2022-12-09T00:23:57.807Z,14.10
2022-12-09T00:26:27.754Z,13.98
2022-12-09T00:28:56.714Z,13.55
2022-12-09T00:31:28.233Z,13.77
2022-12-09T00:34:02.496Z,13.82
2022-12-09T00:36:30.474Z,13.90
2022-12-09T00:38:59.255Z,14.55
2022-12-09T00:41:27.929Z,14.65
2022-12-09T00:43:56.725Z,14.40
2022-12-09T00:46:24.150Z,14.40
2022-12-09T00:48:51.598Z,14.25
2022-12-09T00:51:22.525Z,13.75
2022-12-09T00:53:56.682Z,14.60
2022-12-09T00:56:28.928Z,13.75
2022-12-09T00:58:58.126Z,13.63
2022-12-09T01:01:26.843Z,13.63
2022-12-09T01:03:54.729Z,14.18
2022-12-09T01:06:25.026Z,14.15
2022-12-09T01:08:53.610Z,13.80
2022-12-09T01:11:24.420Z,14.70
2022-12-09T01:13:52.390Z,13.63
2022-12-09T01:16:23.007Z,13.20
2022-12-09T01:18:51.227Z,12.52
2022-12-09T01:21:18.904Z,13.23
2022-12-09T01:23:47.175Z,13.15
2022-12-09T01:26:14.413Z,12.52
2022-12-09T01:28:42.697Z,12.93
2022-12-09T01:31:14.610Z,14.45
2022-12-09T01:33:43.008Z,15.55
2022-12-09T01:36:14.447Z,16.20
2022-12-09T01:38:41.855Z,15.40
2022-12-09T01:41:09.595Z,16.13
2022-12-09T01:43:38.816Z,16.25
2022-12-09T01:46:06.559Z,14.55
2022-12-09T01:48:45.446Z,14.48
2022-12-09T01:51:19.766Z,15.02
2022-12-09T01:53:50.955Z,14.35
2022-12-09T01:56:27.544Z,15.25
2022-12-09T01:58:58.490Z,14.85
2022-12-09T02:01:26.153Z,14.98
2022-12-09T02:03:55.362Z,14.65
2022-12-09T02:06:22.848Z,14.68
2022-12-09T02:08:51.658Z,15.32
2022-12-09T02:11:46.195Z,15.00
2022-12-09T02:14:43.510Z,15.25
2022-12-09T02:17:28.183Z,15.43
2022-12-09T02:20:09.649Z,15.85
2022-12-09T02:23:12.200Z,15.50
2022-12-09T02:26:10.203Z,14.82
2022-12-09T02:29:16.722Z,15.63
2022-12-09T02:32:09.080Z,16.35
2022-12-09T02:34:44.864Z,15.90
2022-12-09T02:37:26.127Z,16.80
2022-12-09T02:40:03.299Z,16.05
2022-12-09T02:42:36.223Z,16.15
2022-12-09T02:45:07.853Z,16.60
2022-12-09T02:47:43.911Z,16.37
2022-12-09T02:50:17.456Z,15.68
2022-12-09T02:52:48.633Z,16.25
2022-12-09T02:55:19.894Z,16.45
2022-12-09T02:57:54.079Z,16.42
2022-12-09T03:00:22.941Z,16.02
2022-12-09T03:02:55.502Z,17.05
2022-12-09T03:05:32.960Z,16.37
2022-12-09T03:08:08.075Z,15.70
2022-12-09T03:11:00.459Z,17.95
2022-12-09T03:14:00.798Z,16.75
2022-12-09T03:16:37.936Z,18.02
2022-12-09T03:19:32.620Z,16.95
2022-12-09T03:22:07.259Z,17.98
2022-12-09T03:24:44.990Z,17.98
2022-12-09T03:27:20.016Z,16.50
2022-12-09T03:29:49.256Z,17.17
2022-12-09T03:32:19.909Z,17.23
2022-12-09T03:34:52.065Z,18.25
2022-12-09T03:37:21.370Z,16.55
2022-12-09T03:39:50.693Z,17.50
2022-12-09T03:42:24.574Z,18.10
2022-12-09T03:45:01.601Z,17.75
2022-12-09T03:47:32.906Z,18.30
2022-12-09T03:50:00.700Z,17.30
2022-12-09T03:52:37.367Z,17.83
2022-12-09T03:55:36.994Z,17.38
2022-12-09T03:58:07.355Z,18.08
2022-12-09T04:00:38.121Z,17.50
2022-12-09T04:03:07.840Z,18.08
2022-12-09T04:05:35.729Z,19.10
2022-12-09T04:08:03.160Z,18.80
2022-12-09T04:10:30.742Z,19.75
2022-12-09T04:12:58.409Z,18.65
2022-12-09T04:15:25.942Z,20.23
2022-12-09T04:17:54.061Z,19.65
2022-12-09T04:20:21.384Z,18.98
2022-12-09T04:22:49.114Z,17.80
2022-12-09T04:25:16.436Z,18.15
2022-12-09T04:27:43.769Z,17.42
2022-12-09T04:30:12.069Z,18.33
2022-12-09T04:32:39.629Z,18.50
2022-12-09T04:35:07.873Z,18.45
2022-12-09T04:37:37.977Z,18.13
2022-12-09T04:40:07.784Z,17.67
2022-12-09T04:42:35.476Z,18.70
2022-12-09T04:45:03.104Z,18.20
2022-12-09T04:47:30.518Z,18.77
2022-12-09T04:49:57.836Z,17.98
2022-12-09T04:52:25.311Z,16.58
2022-12-09T04:54:52.739Z,18.23
2022-12-09T04:57:20.224Z,17.38
2022-12-09T04:59:47.769Z,17.73
2022-12-09T05:02:15.598Z,18.77
2022-12-09T05:04:43.489Z,18.23
2022-12-09T05:07:12.000Z,18.50
2022-12-09T05:09:39.903Z,18.45
2022-12-09T05:12:07.918Z,18.15
2022-12-09T05:14:35.630Z,16.77
2022-12-09T05:17:04.583Z,17.88
2022-12-09T05:19:32.295Z,16.50
2022-12-09T05:21:59.968Z,18.15
2022-12-09T05:24:27.264Z,17.58
2022-12-09T05:26:54.871Z,17.40
2022-12-09T05:29:23.554Z,18.20
2022-12-09T05:31:52.076Z,17.88
2022-12-09T05:34:19.986Z,17.17
2022-12-09T05:36:48.070Z,17.33
2022-12-09T05:39:15.843Z,17.80
2022-12-09T05:41:44.013Z,17.05
2022-12-09T05:44:12.429Z,17.90
2022-12-09T05:46:39.864Z,18.55
2022-12-09T05:49:07.973Z,17.30
2022-12-09T05:51:39.163Z,17.95
2022-12-09T05:54:07.387Z,16.63
2022-12-09T05:56:35.382Z,17.52
2022-12-09T05:59:03.146Z,17.55
2022-12-09T06:01:30.707Z,17.85
2022-12-09T06:03:59.172Z,17.90
2022-12-09T06:06:31.085Z,18.23
2022-12-09T06:09:01.485Z,18.00
2022-12-09T06:11:29.398Z,16.38
2022-12-09T06:13:57.665Z,16.85
2022-12-09T06:16:26.047Z,17.75
2022-12-09T06:18:54.265Z,17.60
2022-12-09T06:21:22.164Z,18.48
2022-12-09T06:23:51.670Z,16.95
2022-12-09T06:26:28.449Z,17.67
2022-12-09T06:28:57.596Z,17.40
2022-12-09T06:31:25.912Z,17.77
2022-12-09T06:33:56.512Z,16.33
2022-12-09T06:36:26.933Z,16.88
2022-12-09T06:38:55.458Z,17.83
2022-12-09T06:41:23.364Z,17.35
2022-12-09T06:43:51.465Z,16.67
2022-12-09T06:46:23.725Z,17.65
2022-12-09T06:48:52.909Z,16.88
2022-12-09T06:51:20.389Z,15.60
2022-12-09T06:53:48.344Z,16.20
2022-12-09T06:56:16.376Z,16.30
2022-12-09T06:58:45.954Z,16.38
2022-12-09T07:01:22.764Z,16.83
2022-12-09T07:03:53.317Z,15.90
2022-12-09T07:06:35.517Z,14.20
2022-12-09T07:09:07.183Z,14.23
2022-12-09T07:11:35.912Z,14.55
2022-12-09T07:14:04.839Z,13.85
2022-12-09T07:16:33.593Z,14.60
2022-12-09T07:19:02.643Z,14.00
2022-12-09T07:21:30.976Z,13.93
2022-12-09T07:24:03.887Z,13.68
2022-12-09T07:26:33.756Z,14.10
2022-12-09T07:29:08.260Z,13.70
2022-12-09T07:31:36.587Z,14.57
2022-12-09T07:34:05.748Z,14.30
2022-12-09T07:36:35.771Z,15.23
2022-12-09T07:39:07.564Z,14.13
2022-12-09T07:41:35.325Z,14.23
2022-12-09T07:44:03.422Z,15.27
2022-12-09T07:46:31.524Z,15.55
2022-12-09T07:48:59.512Z,15.30
2022-12-09T07:51:27.701Z,14.77
2022-12-09T07:53:55.656Z,13.90
2022-12-09T07:56:24.969Z,15.30
2022-12-09T07:58:54.801Z,13.98
2022-12-09T08:01:31.041Z,14.35
2022-12-09T08:03:59.361Z,14.35
2022-12-09T08:06:30.557Z,14.23
2022-12-09T08:09:04.193Z,14.32
2022-12-09T08:11:33.194Z,14.38
2022-12-09T08:14:10.528Z,14.45
2022-12-09T08:16:40.452Z,13.95
2022-12-09T08:19:08.523Z,14.60
2022-12-09T08:21:36.693Z,14.63
2022-12-09T08:24:06.360Z,13.60
2022-12-09T08:26:35.217Z,15.05
2022-12-09T08:29:02.760Z,14.10
2022-12-09T08:31:32.293Z,14.20
2022-12-09T08:34:05.407Z,14.98
2022-12-09T08:36:33.262Z,16.13
2022-12-09T08:39:02.161Z,13.80
2022-12-09T08:41:36.311Z,15.23
2022-12-09T08:44:12.920Z,14.85
2022-12-09T08:46:43.053Z,15.18
2022-12-09T08:49:12.628Z,15.00
2022-12-09T08:51:40.681Z,15.63
2022-12-09T08:54:08.423Z,14.95
2022-12-09T08:56:36.226Z,14.20
2022-12-09T08:59:04.140Z,13.68
2022-12-09T09:01:36.170Z,13.38
2022-12-09T09:04:17.246Z,14.68
2022-12-09T09:06:47.042Z,14.00
2022-12-09T09:09:15.492Z,14.50
2022-12-09T09:11:44.889Z,14.60
2022-12-09T09:14:14.094Z,14.55
2022-12-09T09:16:44.297Z,14.15
2022-12-09T09:19:21.857Z,14.75
2022-12-09T09:21:50.217Z,13.85
2022-12-09T09:24:20.634Z,14.00
2022-12-09T09:26:50.173Z,13.73
2022-12-09T09:29:19.889Z,13.57
2022-12-09T09:31:55.049Z,14.25
2022-12-09T09:34:24.321Z,13.90
2022-12-09T09:36:52.779Z,13.63
2022-12-09T09:39:21.572Z,13.95
2022-12-09T09:42:08.248Z,13.73
2022-12-09T09:44:49.377Z,14.68
2022-12-09T09:47:47.130Z,14.15
2022-12-09T09:50:36.927Z,14.75
2022-12-09T09:53:30.744Z,14.77
2022-12-09T09:56:17.644Z,13.93
2022-12-09T09:58:51.041Z,15.05
2022-12-09T10:03:56.418Z,15.05
2022-12-09T10:06:42.531Z,13.98
2022-12-09T10:09:48.997Z,15.38
2022-12-09T10:12:29.828Z,15.52
2022-12-09T10:15:14.276Z,15.85
2022-12-09T10:17:45.827Z,15.35
2022-12-09T10:20:43.296Z,15.35
2022-12-09T10:23:16.431Z,16.50
2022-12-09T10:26:06.919Z,16.00
2022-12-09T10:28:40.470Z,14.77
2022-12-09T10:31:11.971Z,15.68
2022-12-09T10:33:41.436Z,14.43
2022-12-09T10:36:26.016Z,15.25
2022-12-09T10:38:56.857Z,15.23
2022-12-09T10:42:03.883Z,14.52
2022-12-09T10:44:31.319Z,14.73
2022-12-09T10:47:07.131Z,14.93
2022-12-09T10:49:36.037Z,14.10
2022-12-09T10:52:05.519Z,15.18
2022-12-09T10:54:37.915Z,17.25
2022-12-09T10:57:12.892Z,17.40
2022-12-09T10:59:43.258Z,14.25
2022-12-09T11:02:11.069Z,15.00
2022-12-09T11:04:44.424Z,14.05
2022-12-09T11:07:13.094Z,14.68
2022-12-09T11:09:44.723Z,14.45
2022-12-09T11:12:40.968Z,14.55
2022-12-09T11:15:36.019Z,14.85
2022-12-09T11:18:07.314Z,13.43
2022-12-09T11:20:36.574Z,14.38
2022-12-09T11:23:14.337Z,14.48
2022-12-09T11:26:04.698Z,14.52
2022-12-09T11:28:35.137Z,14.73
2022-12-09T11:31:28.965Z,15.30
2022-12-09T11:34:04.465Z,17.70
2022-12-09T11:36:36.847Z,16.60
2022-12-09T11:39:26.781Z,15.20
2022-12-09T11:42:17.480Z,14.07
2022-12-09T11:44:52.696Z,16.35
2022-12-09T11:48:13.929Z,15.35
2022-12-09T11:50:32.064Z,15.05
2022-12-09T11:53:11.539Z,14.63
2022-12-09T11:55:46.472Z,14.77
2022-12-09T11:58:26.276Z,15.25
2022-12-09T12:01:03.921Z,15.60
2022-12-09T12:03:58.120Z,15.25
2022-12-09T12:06:45.460Z,14.30
2022-12-09T12:09:16.724Z,13.98
2022-12-09T12:12:06.005Z,14.25
2022-12-09T12:14:43.979Z,15.20
2022-12-09T12:17:35.617Z,14.25
2022-12-09T12:20:04.298Z,13.88
2022-12-09T12:23:03.414Z,14.35
2022-12-09T12:25:48.200Z,14.00
2022-12-09T12:28:53.412Z,13.60
2022-12-09T12:31:48.912Z,14.77
2022-12-09T12:34:27.781Z,14.07
2022-12-09T12:37:33.201Z,14.85
2022-12-09T12:40:10.964Z,13.40
2022-12-09T12:43:12.147Z,12.80
2022-12-09T12:46:10.741Z,13.75
2022-12-09T12:49:21.080Z,13.57
2022-12-09T12:52:39.436Z,13.02
2022-12-09T12:55:09.927Z,15.15
2022-12-09T12:57:50.971Z,15.40
2022-12-09T13:00:27.136Z,13.45
2022-12-09T13:03:26.718Z,14.63
2022-12-09T13:05:58.011Z,15.10
2022-12-09T13:08:31.425Z,16.88
2022-12-09T13:11:03.671Z,14.40
2022-12-09T13:13:55.507Z,14.55
2022-12-09T13:16:30.696Z,13.15
2022-12-09T13:19:12.411Z,16.23
2022-12-09T13:21:40.473Z,15.65
2022-12-09T13:24:27.466Z,12.75
2022-12-09T13:27:47.975Z,17.13
2022-12-09T13:30:27.604Z,13.13
2022-12-09T13:33:23.312Z,12.70
2022-12-09T13:36:13.299Z,13.35
2022-12-09T13:38:43.107Z,12.23
2022-12-09T13:41:26.645Z,12.80
2022-12-09T13:43:57.534Z,12.88
2022-12-09T13:46:28.432Z,12.32
2022-12-09T13:48:56.105Z,12.85
2022-12-09T13:51:24.188Z,13.02
2022-12-09T13:54:04.153Z,12.20
2022-12-09T13:56:34.902Z,12.25
2022-12-09T13:59:33.044Z,12.07
2022-12-09T14:02:19.152Z,12.15
2022-12-09T14:04:58.873Z,12.77
2022-12-09T14:07:40.084Z,13.05
2022-12-09T14:10:27.799Z,11.75
2022-12-09T14:12:59.891Z,12.93
2022-12-09T14:15:28.969Z,11.73
2022-12-09T14:18:03.736Z,11.55
2022-12-09T14:20:34.423Z,11.55
2022-12-09T14:23:07.841Z,11.27
2022-12-09T14:25:36.656Z,11.55
2022-12-09T14:28:10.623Z,11.38
2022-12-09T14:30:41.005Z,11.23
2022-12-09T14:33:34.979Z,11.82
2022-12-09T14:36:29.041Z,11.00
2022-12-09T14:41:54.701Z,12.02
2022-12-09T14:44:55.131Z,11.93
2022-12-09T14:47:31.647Z,12.10
2022-12-09T14:50:27.395Z,11.52
2022-12-09T14:52:56.095Z,12.23
2022-12-09T14:55:26.790Z,10.77
2022-12-09T14:57:58.189Z,11.57
2022-12-09T15:00:31.855Z,11.23
2022-12-09T15:03:31.420Z,11.18
2022-12-09T15:06:01.078Z,10.75
2022-12-09T15:08:29.544Z,10.65
2022-12-09T15:10:57.200Z,9.80
2022-12-09T15:13:26.519Z,10.98
2022-12-09T15:15:55.126Z,10.65
2022-12-09T15:18:25.581Z,11.32
2022-12-09T15:20:58.213Z,11.02
2022-12-09T15:23:32.990Z,11.57
2022-12-09T15:26:04.320Z,10.30
2022-12-09T15:28:34.846Z,10.80
2022-12-09T15:31:19.086Z,10.75
2022-12-09T15:33:52.140Z,10.52
2022-12-09T15:36:30.690Z,11.68
2022-12-09T15:39:07.104Z,10.15
2022-12-09T15:42:01.473Z,11.35
2022-12-09T15:44:33.235Z,11.15
2022-12-09T15:47:09.877Z,10.80
2022-12-09T15:49:46.336Z,10.90
2022-12-09T15:52:17.210Z,12.32
2022-12-09T15:54:46.076Z,12.00
2022-12-09T15:57:18.226Z,10.93
2022-12-09T16:00:07.834Z,10.82
2022-12-09T16:02:40.008Z,11.77
2022-12-09T16:05:10.665Z,12.07
2022-12-09T16:07:38.268Z,11.27
2022-12-09T16:10:16.150Z,11.27
2022-12-09T16:12:44.575Z,11.77
2022-12-09T16:15:14.902Z,11.40
2022-12-09T16:17:54.860Z,11.82
2022-12-09T16:20:22.436Z,12.48
2022-12-09T16:22:50.848Z,12.73
2022-12-09T16:25:27.520Z,12.20
2022-12-09T16:28:02.340Z,12.23
2022-12-09T16:30:33.046Z,11.77
2022-12-09T16:33:03.016Z,12.32
2022-12-09T16:35:38.845Z,11.77
2022-12-09T16:38:11.832Z,12.95
2022-12-09T16:40:45.484Z,11.57
2022-12-09T16:43:16.027Z,13.00
2022-12-09T16:45:46.653Z,12.93
2022-12-09T16:48:14.700Z,12.88
2022-12-09T16:50:58.436Z,16.83
2022-12-09T16:56:03.249Z,13.77
2022-12-09T16:58:33.817Z,12.75
2022-12-09T17:01:05.094Z,12.20
2022-12-09T17:03:45.678Z,12.00
2022-12-09T17:06:15.864Z,12.48
2022-12-09T17:08:43.936Z,11.20
2022-12-09T17:11:12.224Z,13.02
2022-12-09T17:13:39.788Z,13.32
2022-12-09T17:16:10.859Z,13.20
2022-12-09T17:18:45.740Z,13.15
2022-12-09T17:21:14.741Z,13.38
2022-12-09T17:23:42.544Z,12.52
2022-12-09T17:26:21.548Z,12.65
2022-12-09T17:28:58.242Z,17.35
2022-12-09T17:31:30.441Z,13.75
2022-12-09T17:34:01.756Z,13.18
2022-12-09T17:36:30.295Z,12.90
2022-12-09T17:39:04.606Z,12.15
2022-12-09T17:41:32.544Z,11.93
2022-12-09T17:44:01.632Z,11.68
2022-12-09T17:46:29.598Z,12.20
2022-12-09T17:48:57.457Z,11.73
2022-12-09T17:51:26.393Z,11.75
2022-12-09T17:53:56.617Z,11.68
2022-12-09T17:56:25.393Z,11.93
2022-12-09T17:59:04.066Z,11.30
2022-12-09T18:01:35.531Z,11.05
2022-12-09T18:04:13.423Z,11.15
2022-12-09T18:06:44.487Z,10.88
2022-12-09T18:09:17.858Z,11.80
2022-12-09T18:11:47.277Z,11.23
2022-12-09T18:14:16.639Z,12.55
2022-12-09T18:16:47.877Z,12.80
2022-12-09T18:19:18.630Z,12.10
2022-12-09T18:21:46.808Z,12.77
2022-12-09T18:24:15.800Z,12.13
2022-12-09T18:26:44.316Z,11.98
2022-12-09T18:29:13.167Z,13.27
2022-12-09T18:31:46.301Z,12.98
2022-12-09T18:34:14.529Z,13.13
2022-12-09T18:36:42.358Z,13.15
2022-12-09T18:39:13.355Z,13.20
2022-12-09T18:41:43.960Z,13.27
2022-12-09T18:44:12.991Z,14.32
2022-12-09T18:46:45.415Z,12.75
2022-12-09T18:49:20.208Z,12.98
2022-12-09T18:51:53.885Z,12.77
2022-12-09T18:54:27.252Z,12.32
2022-12-09T18:57:02.264Z,12.68
2022-12-09T18:59:31.923Z,12.25
2022-12-09T19:02:01.481Z,12.75
2022-12-09T19:04:30.344Z,12.05
2022-12-09T19:07:00.369Z,11.75
2022-12-09T19:09:34.248Z,11.27
2022-12-09T19:12:29.976Z,11.25
2022-12-09T19:14:53.077Z,11.80
2022-12-09T19:17:21.603Z,11.07
2022-12-09T19:19:49.825Z,11.27
2022-12-09T19:22:17.133Z,11.40
2022-12-09T19:24:44.901Z,11.32
2022-12-09T19:27:13.840Z,10.05
2022-12-09T19:29:41.802Z,10.88
2022-12-09T19:32:23.888Z,10.13
2022-12-09T19:34:57.178Z,10.57
2022-12-09T19:37:24.467Z,9.68
2022-12-09T19:39:52.461Z,9.85
2022-12-09T19:42:20.299Z,10.48
2022-12-09T19:45:12.158Z,10.07
2022-12-09T19:47:38.983Z,10.35
2022-12-09T19:50:08.028Z,9.07
2022-12-09T19:52:35.532Z,9.55
2022-12-09T19:55:03.097Z,8.68
2022-12-09T19:57:30.964Z,9.25
2022-12-09T19:59:58.236Z,9.50
2022-12-09T20:02:25.827Z,9.70
2022-12-09T20:04:53.125Z,10.13
2022-12-09T20:07:20.558Z,9.65
2022-12-09T20:09:48.047Z,10.05
2022-12-09T20:12:15.651Z,9.05
2022-12-09T20:14:43.368Z,10.05
2022-12-09T20:17:11.229Z,8.93
2022-12-09T20:19:38.903Z,10.55
2022-12-09T20:22:06.689Z,9.40
2022-12-09T20:24:35.304Z,9.80
2022-12-09T20:27:03.080Z,10.10
2022-12-09T20:29:36.958Z,9.50
2022-12-09T20:32:05.970Z,9.38
2022-12-09T20:34:33.594Z,9.95
2022-12-09T20:37:01.186Z,9.32
2022-12-09T20:39:28.443Z,9.30
2022-12-09T20:41:56.123Z,10.18
2022-12-09T20:44:24.607Z,9.77
2022-12-09T20:46:53.808Z,10.35
2022-12-09T20:49:26.862Z,10.35
2022-12-09T20:51:55.232Z,10.13
2022-12-09T20:54:23.218Z,10.40
2022-12-09T20:56:50.658Z,10.23
2022-12-09T20:59:17.897Z,10.27
2022-12-09T21:01:49.276Z,10.85
2022-12-09T21:04:20.662Z,10.32
2022-12-09T21:06:52.709Z,9.25
2022-12-09T21:09:23.516Z,10.20
2022-12-09T21:11:52.026Z,10.63
2022-12-09T21:14:21.128Z,11.40
2022-12-09T21:16:50.929Z,11.10
2022-12-09T21:19:29.691Z,10.85
2022-12-09T21:21:57.542Z,10.90
2022-12-09T21:24:25.954Z,10.82
2022-12-09T21:26:56.122Z,11.45
2022-12-09T21:29:31.180Z,11.38
2022-12-09T21:32:00.349Z,10.77
2022-12-09T21:34:28.016Z,11.40
2022-12-09T21:36:55.592Z,10.93
2022-12-09T21:39:23.054Z,11.15
2022-12-09T21:41:50.556Z,11.85
2022-12-09T21:44:19.475Z,10.95
2022-12-09T21:46:51.150Z,10.57
2022-12-09T21:49:20.356Z,11.57
2022-12-09T21:51:47.974Z,11.75
2022-12-09T21:54:17.048Z,11.73
2022-12-09T21:56:44.496Z,11.38
2022-12-09T21:59:12.273Z,12.25
2022-12-09T22:01:42.344Z,12.20
2022-12-09T22:04:13.580Z,11.77
2022-12-09T22:06:41.273Z,12.52
2022-12-09T22:09:09.438Z,12.77
2022-12-09T22:11:41.817Z,11.75
2022-12-09T22:14:13.485Z,12.10
2022-12-09T22:16:44.047Z,12.80
2022-12-09T22:19:19.310Z,13.40
2022-12-09T22:21:47.330Z,12.52
2022-12-09T22:24:15.712Z,13.13
2022-12-09T22:26:44.483Z,13.43
2022-12-09T22:29:36.548Z,13.10
2022-12-09T22:32:09.198Z,12.90
2022-12-09T22:34:37.363Z,12.82
2022-12-09T22:37:35.151Z,12.60
2022-12-09T22:39:58.354Z,12.85
2022-12-09T22:42:27.771Z,13.43
2022-12-09T22:44:59.555Z,12.75
2022-12-09T22:47:30.283Z,13.77
2022-12-09T22:49:59.247Z,13.48
2022-12-09T22:52:28.364Z,13.57
2022-12-09T22:54:57.650Z,13.85
2022-12-09T22:57:27.791Z,13.13
2022-12-09T22:59:55.749Z,14.32
2022-12-09T23:02:24.397Z,13.68
2022-12-09T23:04:53.686Z,13.02
2022-12-09T23:07:27.533Z,13.98
2022-12-09T23:09:58.474Z,13.85
2022-12-09T23:12:26.558Z,14.05
2022-12-09T23:14:54.840Z,13.80
2022-12-09T23:17:23.323Z,14.07
2022-12-09T23:19:55.612Z,14.05
2022-12-09T23:22:24.504Z,12.93
2022-12-09T23:24:53.320Z,13.90
2022-12-09T23:27:21.576Z,13.80
2022-12-09T23:29:51.376Z,14.30
2022-12-09T23:32:20.206Z,13.82
2022-12-09T23:34:48.383Z,14.10
2022-12-09T23:37:18.631Z,14.25
2022-12-09T23:39:47.055Z,14.32
2022-12-09T23:42:15.958Z,14.75
2022-12-09T23:44:44.495Z,13.63
2022-12-09T23:47:12.661Z,14.65
2022-12-09T23:49:41.578Z,13.98
2022-12-09T23:52:11.810Z,13.18
2022-12-09T23:54:41.388Z,13.85
2022-12-09T23:57:09.230Z,13.60
2022-12-09T23:59:37.944Z,13.68
